El'ton, Russia
Current Conditions -  °F | °C
As of 4:00 PM on Friday 24 Oct 2014 (Local Time) from URWW Reporting Station
Clear Clear  
Wind Chill: 19°   Ceiling: Unl
Heat Index: 28°   Visibility: 6mi
Dew Point: 12°   Wind: 11mph
Humidity: 51%   Direction: 20°NNE
Pressure: 30.33"   Gusts: 18mph
Location:  49.12°N, 46.56°E
Report Text: URWW 241300Z 02005G08MPS CAVOK M02/M11 Q1027 NOSIG RMK SC070
Loading
Personal Weather Stations






























Interactive Weather Map
Tropical Storm Tracking
New forecast layout! Learn more

10-Day Weather Forecast

Advertisements
Track Severe Weather on mobile